Terminal Aerodrome Forecast
Issued by NWS Tallahassee, FL

Home | Current Version | Previous Version | Text Only | Print | Product List | Glossary On
Versions: 1 2 3 4 5 6 7 8 9 10 11 12 13
000
FTUS42 KTAE 292321
TAFTLH
TAF
KTLH 292321Z 3000/3024 13004KT P6SM FEW025 BKN150 OVC250
     FM300800 00000KT 5SM BR BKN015
     FM301400 04004KT P6SM SCT040
     FM301800 07005KT P6SM VCTS SCT040CB=

USA.gov is the U.S. government's official web portal to all federal, state and local government web resources and services.